createdAt,value
2023-02-10T00:01:40.545Z,58.63
2023-02-10T00:04:08.150Z,59.55
2023-02-10T00:06:35.935Z,63.63
2023-02-10T00:09:04.524Z,66.63
2023-02-10T00:11:51.215Z,64.68
2023-02-10T00:14:20.289Z,70.43
2023-02-10T00:16:52.651Z,62.35
2023-02-10T00:19:22.687Z,63.92
2023-02-10T00:21:51.388Z,61.85
2023-02-10T00:24:19.023Z,62.88
2023-02-10T00:26:47.104Z,64.43
2023-02-10T00:29:15.183Z,66.00
2023-02-10T00:31:44.304Z,59.83
2023-02-10T00:34:17.072Z,65.33
2023-02-10T00:36:49.338Z,71.47
2023-02-10T00:39:18.975Z,62.70
2023-02-10T00:41:46.505Z,69.97
2023-02-10T00:44:14.150Z,66.50
2023-02-10T00:46:41.746Z,67.22
2023-02-10T00:49:12.262Z,63.67
2023-02-10T00:51:39.901Z,62.05
2023-02-10T00:54:11.550Z,65.60
2023-02-10T00:56:41.511Z,71.88
2023-02-10T00:59:15.394Z,66.38
2023-02-10T01:01:43.154Z,65.82
2023-02-10T01:04:10.742Z,70.88
2023-02-10T01:06:39.104Z,63.75
2023-02-10T01:09:06.908Z,64.00
2023-02-10T01:11:34.435Z,77.88
2023-02-10T01:14:02.826Z,70.57
2023-02-10T01:16:30.500Z,66.88
2023-02-10T01:19:00.515Z,70.05
2023-02-10T01:21:31.053Z,72.15
2023-02-10T01:23:58.954Z,65.45
2023-02-10T01:26:26.590Z,73.15
2023-02-10T01:28:54.310Z,62.75
2023-02-10T01:31:22.898Z,66.95
2023-02-10T01:33:56.154Z,73.38
2023-02-10T01:36:26.005Z,74.55
2023-02-10T01:38:53.711Z,72.80
2023-02-10T01:41:24.501Z,68.68
2023-02-10T01:44:04.204Z,69.47
2023-02-10T01:46:36.674Z,68.78
2023-02-10T01:49:17.063Z,71.10
2023-02-10T01:51:57.902Z,81.30
2023-02-10T01:54:33.986Z,74.53
2023-02-10T01:57:02.769Z,68.43
2023-02-10T01:59:38.002Z,72.03
2023-02-10T02:02:09.754Z,74.63
2023-02-10T02:04:46.065Z,75.82
2023-02-10T02:07:13.938Z,76.80
2023-02-10T02:09:41.759Z,73.15
2023-02-10T02:12:29.950Z,73.68
2023-02-10T02:15:13.176Z,77.72
2023-02-10T02:18:24.684Z,82.85
2023-02-10T02:21:23.961Z,72.43
2023-02-10T02:24:25.948Z,76.15
2023-02-10T02:27:35.236Z,79.78
2023-02-10T02:30:44.021Z,73.18
2023-02-10T02:33:37.178Z,74.18
2023-02-10T02:36:31.234Z,82.30
2023-02-10T02:39:06.041Z,80.35
2023-02-10T02:41:37.264Z,76.22
2023-02-10T02:44:08.364Z,83.05
2023-02-10T02:47:19.470Z,84.43
2023-02-10T02:49:57.701Z,91.40
2023-02-10T02:52:52.334Z,74.43
2023-02-10T02:55:53.774Z,74.60
2023-02-10T02:58:46.226Z,79.80
2023-02-10T03:01:26.011Z,79.80
2023-02-10T03:03:58.073Z,80.13
2023-02-10T03:06:26.106Z,75.88
2023-02-10T03:08:54.300Z,75.25
2023-02-10T03:11:22.226Z,69.53
2023-02-10T03:13:51.038Z,76.28
2023-02-10T03:16:18.633Z,70.13
2023-02-10T03:18:46.281Z,69.90
2023-02-10T03:21:13.965Z,63.45
2023-02-10T03:23:41.514Z,75.25
2023-02-10T03:26:09.074Z,79.55
2023-02-10T03:28:36.682Z,71.13
2023-02-10T03:31:10.230Z,70.72
2023-02-10T03:33:37.902Z,67.30
2023-02-10T03:36:06.955Z,74.32
2023-02-10T03:38:34.639Z,78.28
2023-02-10T03:41:02.334Z,73.55
2023-02-10T03:43:30.449Z,75.88
2023-02-10T03:46:06.891Z,69.72
2023-02-10T03:48:34.469Z,74.45
2023-02-10T03:51:05.493Z,70.18
2023-02-10T03:53:33.988Z,69.87
2023-02-10T03:56:01.960Z,70.47
2023-02-10T03:58:29.624Z,71.10
2023-02-10T04:00:57.339Z,76.05
2023-02-10T04:03:25.670Z,75.03
2023-02-10T04:05:53.431Z,73.65
2023-02-10T04:08:20.916Z,71.75
2023-02-10T04:10:48.395Z,83.32
2023-02-10T04:13:16.092Z,69.53
2023-02-10T04:15:43.676Z,89.05
2023-02-10T04:18:11.282Z,78.15
2023-02-10T04:20:38.869Z,77.80
2023-02-10T04:23:06.658Z,77.30
2023-02-10T04:25:34.275Z,83.85
2023-02-10T04:28:01.829Z,82.57
2023-02-10T04:30:29.603Z,85.43
2023-02-10T04:32:57.072Z,77.68
2023-02-10T04:35:24.822Z,77.47
2023-02-10T04:37:52.308Z,76.05
2023-02-10T04:40:20.317Z,80.50
2023-02-10T04:42:48.066Z,78.28
2023-02-10T04:45:15.611Z,82.30
2023-02-10T04:47:43.136Z,84.00
2023-02-10T04:50:10.901Z,77.53
2023-02-10T04:52:38.413Z,78.05
2023-02-10T04:55:06.175Z,95.18
2023-02-10T04:57:33.956Z,85.30
2023-02-10T05:00:01.423Z,97.05
2023-02-10T05:02:28.908Z,86.93
2023-02-10T05:04:56.532Z,86.28
2023-02-10T05:07:24.266Z,82.68
2023-02-10T05:09:52.034Z,89.07
2023-02-10T05:12:19.615Z,84.93
2023-02-10T05:14:47.182Z,85.10
2023-02-10T05:17:14.813Z,86.85
2023-02-10T05:19:42.554Z,87.72
2023-02-10T05:22:10.070Z,84.97
2023-02-10T05:24:37.514Z,95.22
2023-02-10T05:27:05.353Z,101.90
2023-02-10T05:29:32.896Z,160.07
2023-02-10T05:32:00.672Z,180.15
2023-02-10T05:34:28.256Z,446.17
2023-02-10T05:36:56.121Z,224.55
2023-02-10T05:39:27.138Z,439.70
2023-02-10T05:41:58.549Z,209.13
2023-02-10T05:44:28.952Z,331.98
2023-02-10T05:46:57.073Z,339.42
2023-02-10T05:49:24.781Z,316.75
2023-02-10T05:51:53.136Z,299.20
2023-02-10T05:54:21.182Z,431.23
2023-02-10T05:56:51.055Z,448.00
2023-02-10T05:59:19.000Z,460.27
2023-02-10T06:01:46.689Z,422.33
2023-02-10T06:04:14.799Z,339.75
2023-02-10T06:06:42.888Z,401.45
2023-02-10T06:09:10.730Z,351.40
2023-02-10T06:11:38.483Z,485.00
2023-02-10T06:14:06.099Z,376.83
2023-02-10T06:16:33.748Z,457.45
2023-02-10T06:19:01.583Z,456.80
2023-02-10T06:21:29.088Z,496.75
2023-02-10T06:23:56.715Z,320.42
2023-02-10T06:26:24.579Z,377.83
2023-02-10T06:28:52.122Z,296.02
2023-02-10T06:31:19.743Z,450.77
2023-02-10T06:33:48.371Z,349.30
2023-02-10T06:36:16.132Z,474.25
2023-02-10T06:38:44.049Z,321.90
2023-02-10T06:41:11.865Z,437.98
2023-02-10T06:43:39.393Z,552.17
2023-02-10T06:46:08.012Z,237.27
2023-02-10T06:48:35.723Z,489.40
2023-02-10T06:51:03.466Z,510.40
2023-02-10T06:53:31.043Z,445.50
2023-02-10T06:55:59.155Z,468.75
2023-02-10T06:58:27.079Z,664.22
2023-02-10T07:00:54.837Z,393.55
2023-02-10T07:03:22.430Z,348.58
2023-02-10T07:05:52.141Z,545.08
2023-02-10T07:08:19.954Z,420.30
2023-02-10T07:10:47.750Z,399.25
2023-02-10T07:13:16.730Z,557.95
2023-02-10T07:15:44.551Z,497.80
2023-02-10T07:18:12.317Z,626.90
2023-02-10T07:20:40.018Z,386.40
2023-02-10T07:23:07.710Z,390.95
2023-02-10T07:25:35.603Z,299.25
2023-02-10T07:28:03.491Z,378.80
2023-02-10T07:30:31.388Z,559.60
2023-02-10T07:33:00.717Z,499.38
2023-02-10T07:35:28.353Z,444.60
2023-02-10T07:37:55.952Z,396.02
2023-02-10T07:40:23.503Z,313.98
2023-02-10T07:42:51.239Z,617.65
2023-02-10T07:45:34.959Z,317.88
2023-02-10T07:48:02.425Z,321.67
2023-02-10T07:50:32.523Z,304.65
2023-02-10T07:55:29.514Z,287.83
2023-02-10T07:57:57.198Z,241.00
2023-02-10T08:00:24.774Z,268.67
2023-02-10T08:02:52.484Z,333.23
2023-02-10T08:05:20.034Z,265.42
2023-02-10T08:07:48.249Z,291.95
2023-02-10T08:10:16.348Z,229.15
2023-02-10T08:12:43.971Z,227.45
2023-02-10T08:15:11.556Z,236.85
2023-02-10T08:17:40.087Z,269.02
2023-02-10T08:20:08.705Z,226.93
2023-02-10T08:22:36.556Z,203.50
2023-02-10T08:25:05.232Z,217.80
2023-02-10T08:27:33.159Z,208.70
2023-02-10T08:30:00.622Z,207.68
2023-02-10T08:32:28.328Z,235.85
2023-02-10T08:34:55.899Z,188.95
2023-02-10T08:37:24.022Z,209.15
2023-02-10T08:39:51.705Z,215.20
2023-02-10T08:42:20.420Z,191.85
2023-02-10T08:44:48.015Z,203.15
2023-02-10T08:47:15.740Z,193.70
2023-02-10T08:49:44.003Z,190.57
2023-02-10T08:52:12.022Z,198.10
2023-02-10T08:54:39.620Z,182.27
2023-02-10T08:57:08.957Z,166.77
2023-02-10T08:59:36.752Z,173.57
2023-02-10T09:02:04.748Z,173.52
2023-02-10T09:04:32.312Z,178.73
2023-02-10T09:06:59.849Z,175.60
2023-02-10T09:09:28.111Z,160.25
2023-02-10T09:11:56.640Z,147.18
2023-02-10T09:14:25.361Z,144.48
2023-02-10T09:16:53.149Z,150.05
2023-02-10T09:19:21.253Z,155.20
2023-02-10T09:21:48.788Z,148.05
2023-02-10T09:24:18.004Z,158.90
2023-02-10T09:26:45.870Z,145.15
2023-02-10T09:29:14.203Z,137.55
2023-02-10T09:31:42.090Z,120.55
2023-02-10T09:34:10.150Z,132.43
2023-02-10T09:36:37.827Z,132.73
2023-02-10T09:39:05.785Z,127.25
2023-02-10T09:41:36.451Z,124.65
2023-02-10T09:44:26.782Z,134.38
2023-02-10T09:47:21.849Z,119.10
2023-02-10T09:50:30.775Z,117.10
2023-02-10T09:53:12.821Z,112.10
2023-02-10T09:55:48.378Z,114.38
2023-02-10T09:58:43.330Z,106.43
2023-02-10T10:01:28.106Z,103.03
2023-02-10T10:04:15.225Z,107.47
2023-02-10T10:06:57.038Z,96.35
2023-02-10T10:12:18.991Z,97.93
2023-02-10T10:14:47.273Z,99.60
2023-02-10T10:17:42.326Z,99.53
2023-02-10T10:20:37.123Z,99.38
2023-02-10T10:23:20.092Z,97.10
2023-02-10T10:26:09.276Z,91.63
2023-02-10T10:28:39.420Z,97.65
2023-02-10T10:31:18.487Z,97.68
2023-02-10T10:33:51.577Z,88.28
2023-02-10T10:36:28.514Z,94.72
2023-02-10T10:39:03.056Z,82.57
2023-02-10T10:41:36.036Z,78.47
2023-02-10T10:44:04.172Z,81.03
2023-02-10T10:46:51.449Z,77.95
2023-02-10T10:49:19.817Z,78.32
2023-02-10T10:51:49.000Z,73.97
2023-02-10T10:54:22.114Z,77.97
2023-02-10T10:56:59.906Z,78.40
2023-02-10T10:59:55.788Z,72.68
2023-02-10T11:02:25.739Z,73.32
2023-02-10T11:05:11.211Z,70.50
2023-02-10T11:07:42.193Z,64.07
2023-02-10T11:10:26.142Z,65.75
2023-02-10T11:12:56.248Z,61.78
2023-02-10T11:15:34.801Z,63.13
2023-02-10T11:18:06.114Z,63.25
2023-02-10T11:20:37.140Z,56.05
2023-02-10T11:23:16.231Z,61.78
2023-02-10T11:25:56.403Z,61.38
2023-02-10T11:28:28.679Z,50.70
2023-02-10T11:31:22.770Z,57.63
2023-02-10T11:34:03.149Z,49.45
2023-02-10T11:36:38.499Z,50.17
2023-02-10T11:39:28.590Z,51.67
2023-02-10T11:41:56.389Z,51.60
2023-02-10T11:44:31.245Z,50.38
2023-02-10T11:47:07.390Z,51.25
2023-02-10T11:49:37.836Z,41.25
2023-02-10T11:52:06.078Z,43.15
2023-02-10T11:54:33.641Z,47.97
2023-02-10T11:57:44.005Z,50.13
2023-02-10T12:00:33.160Z,47.35
2023-02-10T12:03:12.807Z,46.80
2023-02-10T12:06:00.808Z,45.90
2023-02-10T12:08:56.498Z,46.55
2023-02-10T12:11:47.625Z,46.35
2023-02-10T12:14:27.189Z,42.80
2023-02-10T12:17:29.069Z,40.35
2023-02-10T12:20:24.871Z,43.88
2023-02-10T12:23:27.549Z,39.17
2023-02-10T12:26:31.808Z,35.13
2023-02-10T12:29:22.210Z,35.08
2023-02-10T12:32:12.300Z,34.95
2023-02-10T12:35:23.928Z,32.15
2023-02-10T12:38:27.762Z,40.15
2023-02-10T12:41:28.252Z,39.78
2023-02-10T12:44:25.691Z,38.30
2023-02-10T12:47:49.139Z,39.80
2023-02-10T12:51:00.495Z,31.63
2023-02-10T12:53:37.247Z,32.97
2023-02-10T12:56:24.397Z,41.85
2023-02-10T12:59:01.058Z,38.95
2023-02-10T13:01:43.915Z,42.30
2023-02-10T13:04:35.312Z,41.13
2023-02-10T13:07:29.571Z,49.38
2023-02-10T13:10:55.614Z,47.72
2023-02-10T13:13:34.030Z,51.90
2023-02-10T13:16:09.495Z,49.78
2023-02-10T13:19:00.975Z,48.42
2023-02-10T13:21:34.057Z,60.05
2023-02-10T13:24:29.116Z,47.42
2023-02-10T13:27:21.742Z,50.97
2023-02-10T13:30:22.020Z,54.70
2023-02-10T13:33:30.400Z,49.05
2023-02-10T13:35:59.980Z,50.35
2023-02-10T13:38:34.206Z,54.55
2023-02-10T13:41:20.398Z,48.83
2023-02-10T13:43:57.647Z,51.55
2023-02-10T13:46:31.715Z,50.13
2023-02-10T13:49:02.200Z,41.45
2023-02-10T13:51:38.816Z,43.50
2023-02-10T13:54:06.542Z,44.20
2023-02-10T13:56:35.869Z,43.40
2023-02-10T13:59:18.364Z,41.55
2023-02-10T14:01:46.028Z,42.55
2023-02-10T14:04:19.854Z,43.78
2023-02-10T14:06:53.278Z,43.22
2023-02-10T14:09:38.108Z,41.65
2023-02-10T14:12:25.999Z,47.65
2023-02-10T14:14:53.796Z,51.55
2023-02-10T14:17:33.349Z,47.42
2023-02-10T14:20:02.624Z,44.55
2023-02-10T14:22:30.590Z,43.78
2023-02-10T14:25:26.252Z,43.10
2023-02-10T14:27:55.984Z,42.05
2023-02-10T14:30:42.147Z,46.17
2023-02-10T14:33:32.436Z,46.47
2023-02-10T14:36:05.052Z,41.67
2023-02-10T14:38:38.062Z,43.13
2023-02-10T14:41:19.863Z,44.35
2023-02-10T14:43:51.277Z,37.95
2023-02-10T14:46:27.404Z,39.38
2023-02-10T14:49:04.719Z,40.80
2023-02-10T14:51:32.802Z,44.10
2023-02-10T14:54:26.088Z,47.50
2023-02-10T14:57:02.949Z,43.55
2023-02-10T14:59:33.335Z,44.25
2023-02-10T15:02:17.934Z,38.08
2023-02-10T15:04:51.143Z,37.08
2023-02-10T15:07:29.560Z,36.72
2023-02-10T15:10:06.982Z,38.20
2023-02-10T15:12:42.582Z,38.13
2023-02-10T15:15:42.582Z,38.00
2023-02-10T15:18:20.996Z,43.33
2023-02-10T15:20:56.187Z,38.05
2023-02-10T15:23:32.137Z,36.65
2023-02-10T15:26:20.144Z,43.67
2023-02-10T15:29:17.735Z,44.17
2023-02-10T15:31:59.681Z,42.60
2023-02-10T15:34:32.756Z,39.53
2023-02-10T15:37:05.350Z,44.30
2023-02-10T15:39:37.329Z,40.42
2023-02-10T15:42:28.362Z,40.20
2023-02-10T15:45:17.857Z,38.43
2023-02-10T15:47:50.632Z,43.92
2023-02-10T15:50:18.316Z,40.33
2023-02-10T15:52:49.534Z,45.50
2023-02-10T15:55:38.620Z,44.40
2023-02-10T15:58:06.948Z,44.53
2023-02-10T16:00:38.431Z,40.95
2023-02-10T16:03:09.839Z,42.65
2023-02-10T16:05:39.615Z,41.50
2023-02-10T16:08:18.403Z,42.85
2023-02-10T16:10:46.073Z,46.53
2023-02-10T16:13:16.451Z,42.65
2023-02-10T16:15:50.699Z,46.38
2023-02-10T16:18:26.699Z,45.92
2023-02-10T16:20:54.410Z,46.10
2023-02-10T16:23:22.396Z,49.88
2023-02-10T16:25:50.652Z,45.65
2023-02-10T16:28:20.189Z,45.25
2023-02-10T16:30:49.407Z,43.22
2023-02-10T16:33:17.030Z,51.38
2023-02-10T16:35:44.634Z,46.20
2023-02-10T16:38:17.540Z,43.83
2023-02-10T16:40:45.831Z,44.45
2023-02-10T16:43:13.366Z,44.25
2023-02-10T16:45:40.929Z,44.38
2023-02-10T16:48:13.668Z,43.92
2023-02-10T16:50:43.708Z,49.83
2023-02-10T16:53:12.406Z,40.40
2023-02-10T16:55:41.493Z,44.25
2023-02-10T16:58:15.522Z,43.75
2023-02-10T17:00:44.822Z,43.88
2023-02-10T17:03:12.603Z,39.92
2023-02-10T17:05:40.581Z,42.45
2023-02-10T17:08:10.559Z,45.10
2023-02-10T17:10:38.121Z,41.78
2023-02-10T17:13:05.718Z,47.97
2023-02-10T17:15:33.357Z,42.53
2023-02-10T17:18:00.994Z,43.55
2023-02-10T17:20:34.853Z,43.60
2023-02-10T17:23:03.578Z,42.60
2023-02-10T17:25:31.909Z,43.83
2023-02-10T17:27:59.562Z,44.70
2023-02-10T17:30:28.360Z,42.60
2023-02-10T17:32:56.965Z,44.55
2023-02-10T17:35:29.859Z,43.25
2023-02-10T17:38:36.736Z,44.47
2023-02-10T17:41:04.787Z,42.17
2023-02-10T17:43:32.280Z,45.03
2023-02-10T17:45:59.889Z,43.20
2023-02-10T17:48:27.472Z,49.05
2023-02-10T17:51:03.543Z,47.28
2023-02-10T17:53:32.864Z,48.97
2023-02-10T17:56:01.819Z,47.97
2023-02-10T17:58:29.887Z,47.10
2023-02-10T18:00:58.163Z,49.03
2023-02-10T18:03:26.707Z,54.75
2023-02-10T18:06:00.900Z,52.58
2023-02-10T18:08:29.195Z,52.80
2023-02-10T18:10:57.511Z,54.88
2023-02-10T18:13:25.186Z,51.88
2023-02-10T18:15:54.902Z,55.47
2023-02-10T18:18:22.423Z,51.13
2023-02-10T18:20:49.868Z,50.30
2023-02-10T18:23:17.968Z,51.97
2023-02-10T18:25:45.496Z,54.45
2023-02-10T18:28:13.121Z,54.53
2023-02-10T18:30:45.354Z,49.58
2023-02-10T18:33:14.248Z,54.47
2023-02-10T18:35:43.025Z,57.88
2023-02-10T18:38:10.756Z,53.30
2023-02-10T18:40:43.752Z,53.03
2023-02-10T18:43:11.531Z,53.95
2023-02-10T18:45:45.377Z,57.58
2023-02-10T18:48:13.953Z,57.58
2023-02-10T18:50:44.328Z,54.88
2023-02-10T18:53:12.734Z,54.90
2023-02-10T18:55:42.917Z,58.35
2023-02-10T18:58:15.666Z,54.45
2023-02-10T19:00:43.688Z,54.95
2023-02-10T19:03:12.056Z,56.05
2023-02-10T19:05:39.799Z,57.60
2023-02-10T19:08:07.423Z,57.38
2023-02-10T19:10:36.261Z,62.90
2023-02-10T19:13:04.033Z,62.05
2023-02-10T19:15:33.058Z,57.38
2023-02-10T19:18:00.722Z,56.78
2023-02-10T19:20:28.719Z,59.03
2023-02-10T19:22:56.244Z,58.42
2023-02-10T19:25:24.636Z,57.92
2023-02-10T19:27:52.296Z,56.55
2023-02-10T19:30:19.847Z,62.00
2023-02-10T19:32:47.371Z,55.70
2023-02-10T19:35:15.204Z,63.05
2023-02-10T19:37:42.688Z,60.03
2023-02-10T19:40:10.974Z,60.50
2023-02-10T19:42:38.487Z,61.70
2023-02-10T19:45:07.343Z,62.75
2023-02-10T19:47:35.056Z,61.88
2023-02-10T19:50:02.875Z,57.42
2023-02-10T19:52:30.408Z,63.25
2023-02-10T19:54:58.063Z,67.18
2023-02-10T19:57:27.774Z,63.33
2023-02-10T19:59:55.564Z,61.53
2023-02-10T20:02:23.219Z,61.47
2023-02-10T20:04:51.483Z,70.10
2023-02-10T20:07:20.696Z,65.68
2023-02-10T20:09:48.701Z,64.28
2023-02-10T20:12:16.248Z,65.50
2023-02-10T20:14:44.047Z,62.90
2023-02-10T20:17:12.913Z,68.60
2023-02-10T20:19:40.825Z,67.30
2023-02-10T20:22:08.730Z,66.20
2023-02-10T20:24:36.358Z,62.30
2023-02-10T20:27:03.976Z,63.05
2023-02-10T20:29:37.550Z,63.28
2023-02-10T20:32:05.425Z,69.18
2023-02-10T20:34:32.963Z,63.88
2023-02-10T20:37:01.803Z,65.13
2023-02-10T20:39:29.321Z,64.22
2023-02-10T20:41:56.866Z,69.43
2023-02-10T20:44:24.565Z,68.82
2023-02-10T20:46:52.673Z,62.47
2023-02-10T20:49:20.324Z,67.85
2023-02-10T20:51:47.862Z,64.90
2023-02-10T20:54:15.447Z,65.32
2023-02-10T20:56:42.932Z,66.38
2023-02-10T20:59:11.723Z,64.95
2023-02-10T21:01:39.376Z,65.97
2023-02-10T21:04:07.080Z,65.38
2023-02-10T21:06:34.881Z,69.15
2023-02-10T21:09:02.658Z,58.67
2023-02-10T21:11:30.538Z,56.13
2023-02-10T21:13:58.308Z,64.82
2023-02-10T21:16:26.102Z,61.13
2023-02-10T21:18:55.038Z,58.28
2023-02-10T21:21:22.744Z,56.10
2023-02-10T21:23:51.127Z,56.28
2023-02-10T21:26:19.869Z,55.10
2023-02-10T21:28:48.581Z,52.58
2023-02-10T21:31:22.027Z,52.47
2023-02-10T21:33:51.651Z,52.95
2023-02-10T21:36:26.583Z,51.35
2023-02-10T21:39:00.475Z,56.72
2023-02-10T21:41:42.245Z,55.85
2023-02-10T21:44:27.114Z,52.13
2023-02-10T21:47:02.005Z,52.38
2023-02-10T21:49:31.232Z,51.85
2023-02-10T21:51:59.539Z,47.42
2023-02-10T21:54:28.912Z,50.13
2023-02-10T21:56:57.659Z,46.13
2023-02-10T21:59:25.221Z,47.67
2023-02-10T22:01:53.077Z,47.33
2023-02-10T22:04:20.682Z,51.00
2023-02-10T22:06:48.260Z,49.50
2023-02-10T22:09:18.571Z,44.58
2023-02-10T22:11:49.251Z,47.50
2023-02-10T22:14:18.152Z,41.63
2023-02-10T22:16:45.926Z,44.50
2023-02-10T22:19:14.476Z,47.53
2023-02-10T22:21:42.099Z,44.40
2023-02-10T22:24:12.074Z,46.47
2023-02-10T22:26:40.144Z,44.20
2023-02-10T22:29:07.933Z,43.83
2023-02-10T22:31:36.297Z,46.85
2023-02-10T22:34:06.234Z,43.13
2023-02-10T22:36:34.823Z,46.47
2023-02-10T22:39:03.623Z,46.47
2023-02-10T22:41:32.711Z,42.28
2023-02-10T22:44:04.176Z,41.65
2023-02-10T22:46:32.183Z,42.13
2023-02-10T22:49:02.989Z,40.83
2023-02-10T22:51:33.395Z,44.23
2023-02-10T22:54:06.729Z,45.83
2023-02-10T22:56:38.799Z,48.15
2023-02-10T22:59:07.913Z,41.20
2023-02-10T23:01:40.952Z,43.15
2023-02-10T23:04:12.073Z,41.10
2023-02-10T23:06:40.296Z,44.95
2023-02-10T23:09:11.245Z,44.83
2023-02-10T23:11:47.375Z,44.90
2023-02-10T23:14:15.887Z,40.35
2023-02-10T23:16:50.492Z,42.75
2023-02-10T23:19:18.259Z,42.90
2023-02-10T23:21:45.790Z,40.58
2023-02-10T23:24:13.696Z,42.35
2023-02-10T23:26:41.364Z,50.60
2023-02-10T23:29:17.232Z,43.13
2023-02-10T23:31:46.145Z,41.60
2023-02-10T23:34:13.929Z,39.40
2023-02-10T23:36:41.698Z,41.88
2023-02-10T23:39:10.313Z,41.40
2023-02-10T23:41:38.899Z,39.38
2023-02-10T23:44:08.051Z,35.95
2023-02-10T23:46:35.989Z,38.00
2023-02-10T23:49:03.589Z,41.40
2023-02-10T23:51:31.384Z,39.00
2023-02-10T23:53:59.215Z,37.58
2023-02-10T23:56:27.380Z,37.17
2023-02-10T23:58:55.224Z,37.53
